createdAt,value
2022-10-17T00:01:01.700Z,4.15
2022-10-17T00:03:29.319Z,3.90
2022-10-17T00:05:58.317Z,4.95
2022-10-17T00:08:26.014Z,5.00
2022-10-17T00:10:58.991Z,5.45
2022-10-17T00:13:27.256Z,5.13
2022-10-17T00:15:55.135Z,4.45
2022-10-17T00:18:23.024Z,4.90
2022-10-17T00:20:50.513Z,5.80
2022-10-17T00:23:18.474Z,4.97
2022-10-17T00:25:46.347Z,5.22
2022-10-17T00:28:15.580Z,6.13
2022-10-17T00:30:43.019Z,5.32
2022-10-17T00:33:10.486Z,4.30
2022-10-17T00:35:37.935Z,4.90
2022-10-17T00:38:05.381Z,5.53
2022-10-17T00:40:32.838Z,5.22
2022-10-17T00:43:00.354Z,5.88
2022-10-17T00:45:30.870Z,5.07
2022-10-17T00:48:06.381Z,5.93
2022-10-17T00:50:36.437Z,5.38
2022-10-17T00:53:06.639Z,5.03
2022-10-17T00:55:43.608Z,5.40
2022-10-17T00:58:11.311Z,6.18
2022-10-17T01:00:39.174Z,5.43
2022-10-17T01:03:06.695Z,6.82
2022-10-17T01:05:34.304Z,4.65
2022-10-17T01:08:02.343Z,6.32
2022-10-17T01:10:41.031Z,6.03
2022-10-17T01:13:22.401Z,6.82
2022-10-17T01:15:58.621Z,5.90
2022-10-17T01:18:59.676Z,6.78
2022-10-17T01:21:56.215Z,6.53
2022-10-17T01:24:51.721Z,6.78
2022-10-17T01:27:35.502Z,6.35
2022-10-17T01:30:24.171Z,5.35
2022-10-17T01:33:29.543Z,6.25
2022-10-17T01:36:12.830Z,6.00
2022-10-17T01:39:38.435Z,6.30
2022-10-17T01:42:33.118Z,6.57
2022-10-17T01:45:00.522Z,6.78
2022-10-17T01:47:32.214Z,6.88
2022-10-17T01:50:05.326Z,7.72
2022-10-17T01:52:42.554Z,7.15
2022-10-17T01:55:09.967Z,7.10
2022-10-17T01:57:43.095Z,5.90
2022-10-17T02:00:14.713Z,7.05
2022-10-17T02:02:46.039Z,7.65
2022-10-17T02:05:13.538Z,8.93
2022-10-17T02:07:43.812Z,7.05
2022-10-17T02:10:20.695Z,7.43
2022-10-17T02:13:03.139Z,7.90
2022-10-17T02:18:42.549Z,7.72
2022-10-17T02:21:19.952Z,7.65
2022-10-17T02:24:02.208Z,7.72
2022-10-17T02:26:36.415Z,8.00
2022-10-17T02:29:07.187Z,9.05
2022-10-17T02:31:41.231Z,9.13
2022-10-17T02:34:22.021Z,7.68
2022-10-17T02:36:54.730Z,9.15
2022-10-17T02:39:24.402Z,8.85
2022-10-17T02:41:54.724Z,8.70
2022-10-17T02:44:24.361Z,8.40
2022-10-17T02:46:58.912Z,8.73
2022-10-17T02:49:31.218Z,9.10
2022-10-17T02:54:58.409Z,9.23
2022-10-17T02:57:32.057Z,8.55
2022-10-17T03:00:02.291Z,9.90
2022-10-17T03:02:30.127Z,9.20
2022-10-17T03:04:57.743Z,9.75
2022-10-17T03:07:25.173Z,9.48
2022-10-17T03:09:52.643Z,10.38
2022-10-17T03:12:20.093Z,9.68
2022-10-17T03:14:47.549Z,9.27
2022-10-17T03:17:15.022Z,10.80
2022-10-17T03:19:42.470Z,9.30
2022-10-17T03:22:10.208Z,9.05
2022-10-17T03:24:37.685Z,9.73
2022-10-17T03:27:05.332Z,8.20
2022-10-17T03:29:32.792Z,10.43
2022-10-17T03:32:00.270Z,9.13
2022-10-17T03:34:27.736Z,9.50
2022-10-17T03:36:55.366Z,8.32
2022-10-17T03:39:22.854Z,8.85
2022-10-17T03:41:50.310Z,9.43
2022-10-17T03:44:17.822Z,9.25
2022-10-17T03:46:45.296Z,8.52
2022-10-17T03:49:12.831Z,8.15
2022-10-17T03:51:40.327Z,8.10
2022-10-17T03:54:07.781Z,8.32
2022-10-17T03:56:35.257Z,6.93
2022-10-17T03:59:03.007Z,8.27
2022-10-17T04:01:30.656Z,8.40
2022-10-17T04:03:58.517Z,7.88
2022-10-17T04:06:25.975Z,7.65
2022-10-17T04:08:53.478Z,8.30
2022-10-17T04:11:22.586Z,7.45
2022-10-17T04:13:55.488Z,8.32
2022-10-17T04:16:23.870Z,7.65
2022-10-17T04:18:55.474Z,7.53
2022-10-17T04:21:24.628Z,8.88
2022-10-17T04:23:56.335Z,7.53
2022-10-17T04:26:24.385Z,7.47
2022-10-17T04:28:52.287Z,8.63
2022-10-17T04:31:20.365Z,8.23
2022-10-17T04:33:50.205Z,7.65
2022-10-17T04:36:20.003Z,7.45
2022-10-17T04:38:48.065Z,7.75
2022-10-17T04:41:18.927Z,7.00
2022-10-17T04:43:50.100Z,8.10
2022-10-17T04:46:18.890Z,7.78
2022-10-17T04:48:46.576Z,8.45
2022-10-17T04:51:16.422Z,7.88
2022-10-17T04:53:45.545Z,7.10
2022-10-17T04:58:42.506Z,8.07
2022-10-17T05:01:13.105Z,7.68
2022-10-17T05:03:41.276Z,8.05
2022-10-17T05:06:14.265Z,7.25
2022-10-17T05:08:42.099Z,8.07
2022-10-17T05:11:27.505Z,7.43
2022-10-17T05:13:57.649Z,7.15
2022-10-17T05:16:26.779Z,6.47
2022-10-17T05:18:57.150Z,6.43
2022-10-17T05:21:26.353Z,8.40
2022-10-17T05:23:54.721Z,6.80
2022-10-17T05:26:23.411Z,7.97
2022-10-17T05:28:52.407Z,7.55
2022-10-17T05:31:20.268Z,7.68
2022-10-17T05:33:47.786Z,7.28
2022-10-17T05:36:15.311Z,7.38
2022-10-17T05:38:42.912Z,7.78
2022-10-17T05:41:11.042Z,7.80
2022-10-17T05:43:38.513Z,6.88
2022-10-17T05:46:07.161Z,7.32
2022-10-17T05:48:35.261Z,7.38
2022-10-17T05:51:08.755Z,6.40
2022-10-17T05:53:38.822Z,7.80
2022-10-17T05:56:08.412Z,6.72
2022-10-17T05:58:49.739Z,7.30
2022-10-17T06:01:18.269Z,6.82
2022-10-17T06:03:45.825Z,7.18
2022-10-17T06:06:14.678Z,6.05
2022-10-17T06:08:42.340Z,6.32
2022-10-17T06:11:10.539Z,6.30
2022-10-17T06:13:39.426Z,5.72
2022-10-17T06:16:07.535Z,6.88
2022-10-17T06:18:35.165Z,6.95
2022-10-17T06:21:05.664Z,7.72
2022-10-17T06:23:33.475Z,6.82
2022-10-17T06:26:05.245Z,7.15
2022-10-17T06:28:33.092Z,7.15
2022-10-17T06:31:00.679Z,5.85
2022-10-17T06:33:28.236Z,6.00
2022-10-17T06:35:56.823Z,6.18
2022-10-17T06:38:24.637Z,6.22
2022-10-17T06:40:53.926Z,6.05
2022-10-17T06:43:26.924Z,7.25
2022-10-17T06:48:27.973Z,6.15
2022-10-17T06:50:59.406Z,6.60
2022-10-17T06:53:32.444Z,6.43
2022-10-17T06:56:03.001Z,5.38
2022-10-17T06:58:32.129Z,6.15
2022-10-17T07:01:04.575Z,6.15
2022-10-17T07:03:32.798Z,5.43
2022-10-17T07:06:00.261Z,6.50
2022-10-17T07:08:27.844Z,5.80
2022-10-17T07:10:55.594Z,5.28
2022-10-17T07:13:23.519Z,5.95
2022-10-17T07:15:51.076Z,5.97
2022-10-17T07:18:18.608Z,4.95
2022-10-17T07:20:54.213Z,6.30
2022-10-17T07:23:22.363Z,5.88
2022-10-17T07:25:50.109Z,5.05
2022-10-17T07:28:17.682Z,5.13
2022-10-17T07:30:46.809Z,5.30
2022-10-17T07:33:16.826Z,5.85
2022-10-17T07:35:44.318Z,5.15
2022-10-17T07:38:12.170Z,7.38
2022-10-17T07:40:39.619Z,6.45
2022-10-17T07:43:07.143Z,5.60
2022-10-17T07:45:34.595Z,6.28
2022-10-17T07:48:02.101Z,5.65
2022-10-17T07:50:29.617Z,5.88
2022-10-17T07:52:57.119Z,6.82
2022-10-17T07:55:24.672Z,5.72
2022-10-17T07:57:52.250Z,6.90
2022-10-17T08:00:20.115Z,6.90
2022-10-17T08:02:47.746Z,5.47
2022-10-17T08:05:15.314Z,7.07
2022-10-17T08:07:42.767Z,4.38
2022-10-17T08:10:13.058Z,5.82
2022-10-17T08:12:40.601Z,6.03
2022-10-17T08:15:09.629Z,7.03
2022-10-17T08:17:38.872Z,7.13
2022-10-17T08:20:07.633Z,5.78
2022-10-17T08:22:35.099Z,7.70
2022-10-17T08:25:02.701Z,5.90
2022-10-17T08:27:30.220Z,6.88
2022-10-17T08:29:57.722Z,7.30
2022-10-17T08:32:28.052Z,6.95
2022-10-17T08:34:56.582Z,7.82
2022-10-17T08:37:24.296Z,8.18
2022-10-17T08:39:51.792Z,7.15
2022-10-17T08:42:44.203Z,7.53
2022-10-17T08:45:33.538Z,7.30
2022-10-17T08:48:03.113Z,8.55
2022-10-17T08:50:38.106Z,7.22
2022-10-17T08:53:15.688Z,6.30
2022-10-17T08:55:54.447Z,7.57
2022-10-17T08:58:33.533Z,8.13
2022-10-17T09:01:19.816Z,7.32
2022-10-17T09:04:24.741Z,7.68
2022-10-17T09:07:01.155Z,7.90
2022-10-17T09:09:49.558Z,7.20
2022-10-17T09:12:53.033Z,7.63
2022-10-17T09:15:46.566Z,8.85
2022-10-17T09:18:28.078Z,8.25
2022-10-17T09:21:00.689Z,7.80
2022-10-17T09:23:46.208Z,10.02
2022-10-17T09:26:14.166Z,8.98
2022-10-17T09:28:43.598Z,8.85
2022-10-17T09:31:23.419Z,8.18
2022-10-17T09:33:58.022Z,7.90
2022-10-17T09:36:29.347Z,8.27
2022-10-17T09:38:59.958Z,8.83
2022-10-17T09:41:46.107Z,9.07
2022-10-17T09:44:16.970Z,8.13
2022-10-17T09:47:11.895Z,8.77
2022-10-17T09:49:41.702Z,8.88
2022-10-17T09:52:16.339Z,10.82
2022-10-17T09:54:48.861Z,8.65
2022-10-17T09:57:18.357Z,7.03
2022-10-17T09:59:47.091Z,7.45
2022-10-17T10:02:14.929Z,8.90
2022-10-17T10:05:18.940Z,7.53
2022-10-17T10:08:04.241Z,8.73
2022-10-17T10:10:33.277Z,7.82
2022-10-17T10:13:12.733Z,6.63
2022-10-17T10:15:43.262Z,8.05
2022-10-17T10:18:26.207Z,7.25
2022-10-17T10:21:04.585Z,7.60
2022-10-17T10:23:32.118Z,8.80
2022-10-17T10:26:03.415Z,8.55
2022-10-17T10:28:34.027Z,8.37
2022-10-17T10:31:08.844Z,8.15
2022-10-17T10:33:42.014Z,8.15
2022-10-17T10:36:11.012Z,6.88
2022-10-17T10:38:42.405Z,6.60
2022-10-17T10:41:12.507Z,7.13
2022-10-17T10:43:44.609Z,6.45
2022-10-17T10:46:32.313Z,6.25
2022-10-17T10:49:03.123Z,6.00
2022-10-17T10:51:35.441Z,6.80
2022-10-17T10:54:21.414Z,6.05
2022-10-17T10:59:33.611Z,4.18
2022-10-17T11:02:02.214Z,5.30
2022-10-17T11:04:43.333Z,3.58
2022-10-17T11:07:23.503Z,2.80
2022-10-17T11:10:15.189Z,3.60
2022-10-17T11:15:32.605Z,5.35
2022-10-17T11:18:07.495Z,5.45
2022-10-17T11:20:50.086Z,6.60
2022-10-17T11:23:31.317Z,6.05
2022-10-17T11:26:03.845Z,6.43
2022-10-17T11:28:31.808Z,6.40
2022-10-17T11:31:05.756Z,6.75
2022-10-17T11:33:58.078Z,6.53
2022-10-17T11:36:30.637Z,6.85
2022-10-17T11:39:04.698Z,7.13
2022-10-17T11:41:43.509Z,5.75
2022-10-17T11:44:29.381Z,6.35
2022-10-17T11:47:02.356Z,6.25
2022-10-17T11:49:39.887Z,5.95
2022-10-17T11:52:55.341Z,5.90
2022-10-17T11:55:25.049Z,7.15
2022-10-17T11:58:25.406Z,7.03
2022-10-17T12:01:12.502Z,5.93
2022-10-17T12:04:08.284Z,6.30
2022-10-17T12:06:54.282Z,4.32
2022-10-17T12:09:32.499Z,3.50
2022-10-17T12:12:02.993Z,3.60
2022-10-17T12:14:46.956Z,2.97
2022-10-17T12:17:42.260Z,3.40
2022-10-17T12:20:28.460Z,2.85
2022-10-17T12:23:00.472Z,2.30
2022-10-17T12:25:32.692Z,2.08
2022-10-17T12:28:17.208Z,2.08
2022-10-17T12:30:54.198Z,1.60
2022-10-17T12:33:50.073Z,1.77
2022-10-17T12:36:21.091Z,2.58
2022-10-17T12:39:03.459Z,1.05
2022-10-17T12:44:21.430Z,1.40
2022-10-17T12:47:07.958Z,1.40
2022-10-17T12:49:46.663Z,1.45
2022-10-17T12:55:27.420Z,1.50
2022-10-17T12:58:04.557Z,1.58
2022-10-17T13:01:05.399Z,1.85
2022-10-17T13:03:47.740Z,2.05
2022-10-17T13:06:30.661Z,2.33
2022-10-17T13:09:05.766Z,1.67
2022-10-17T13:11:37.253Z,1.95
2022-10-17T13:14:12.947Z,3.30
2022-10-17T13:16:52.090Z,1.95
2022-10-17T13:19:23.350Z,1.77
2022-10-17T13:22:05.988Z,2.45
2022-10-17T13:24:42.010Z,2.70
2022-10-17T13:27:31.229Z,2.60
2022-10-17T13:30:00.965Z,3.78
2022-10-17T13:32:37.313Z,3.95
2022-10-17T13:35:17.114Z,3.80
2022-10-17T13:37:52.984Z,4.10
2022-10-17T13:43:24.097Z,5.93
2022-10-17T13:45:54.835Z,4.07
2022-10-17T13:48:28.674Z,4.07
2022-10-17T13:51:02.466Z,4.97
2022-10-17T13:53:34.750Z,4.55
2022-10-17T13:56:29.259Z,4.85
2022-10-17T13:59:05.135Z,5.53
2022-10-17T14:01:33.281Z,5.35
2022-10-17T14:04:08.940Z,5.55
2022-10-17T14:06:49.305Z,6.03
2022-10-17T14:09:29.759Z,6.25
2022-10-17T14:12:01.634Z,5.25
2022-10-17T14:14:32.191Z,6.40
2022-10-17T14:17:22.860Z,6.00
2022-10-17T14:20:16.115Z,6.10
2022-10-17T14:22:50.577Z,5.95
2022-10-17T14:25:39.004Z,6.50
2022-10-17T14:28:11.001Z,5.75
2022-10-17T14:30:56.308Z,5.63
2022-10-17T14:33:29.497Z,5.78
2022-10-17T14:38:27.017Z,6.07
2022-10-17T14:41:09.764Z,7.05
2022-10-17T14:43:45.528Z,5.60
2022-10-17T14:46:16.832Z,5.90
2022-10-17T14:48:47.603Z,6.72
2022-10-17T14:51:18.027Z,5.22
2022-10-17T14:54:06.403Z,5.90
2022-10-17T14:56:42.552Z,4.88
2022-10-17T14:59:13.763Z,5.85
2022-10-17T15:01:43.272Z,4.93
2022-10-17T15:04:11.261Z,4.90
2022-10-17T15:06:40.595Z,4.57
2022-10-17T15:09:08.143Z,4.90
2022-10-17T15:11:35.598Z,4.40
2022-10-17T15:14:03.118Z,4.07
2022-10-17T15:16:35.675Z,4.82
2022-10-17T15:19:03.199Z,4.30
2022-10-17T15:21:40.505Z,4.22
2022-10-17T15:24:10.908Z,4.55
2022-10-17T15:26:38.907Z,5.25
2022-10-17T15:29:07.234Z,5.20
2022-10-17T15:31:35.894Z,4.72
2022-10-17T15:34:03.399Z,3.75
2022-10-17T15:36:36.827Z,3.95
2022-10-17T15:39:04.637Z,4.53
2022-10-17T15:41:33.639Z,4.03
2022-10-17T15:44:01.218Z,3.70
2022-10-17T15:46:31.303Z,3.00
2022-10-17T15:49:03.548Z,5.40
2022-10-17T15:51:31.084Z,4.30
2022-10-17T15:54:01.230Z,3.42
2022-10-17T15:56:35.829Z,3.65
2022-10-17T15:59:05.715Z,3.58
2022-10-17T16:01:35.001Z,4.85
2022-10-17T16:04:02.501Z,3.35
2022-10-17T16:06:30.306Z,3.63
2022-10-17T16:08:57.820Z,3.05
2022-10-17T16:11:34.213Z,3.65
2022-10-17T16:14:04.377Z,4.72
2022-10-17T16:16:32.550Z,4.40
2022-10-17T16:19:01.381Z,4.93
2022-10-17T16:24:05.209Z,3.42
2022-10-17T16:26:33.254Z,2.45
2022-10-17T16:29:02.956Z,2.78
2022-10-17T16:31:40.538Z,3.22
2022-10-17T16:34:08.893Z,3.78
2022-10-17T16:36:36.465Z,2.13
2022-10-17T16:39:04.391Z,2.45
2022-10-17T16:41:35.266Z,2.72
2022-10-17T16:44:05.191Z,3.13
2022-10-17T16:46:34.226Z,2.63
2022-10-17T16:49:01.721Z,3.50
2022-10-17T16:51:29.292Z,2.55
2022-10-17T16:54:00.055Z,2.55
2022-10-17T16:56:29.829Z,1.88
2022-10-17T16:58:57.533Z,1.55
2022-10-17T17:01:26.657Z,1.92
2022-10-17T17:03:54.593Z,2.80
2022-10-17T17:06:30.125Z,2.20
2022-10-17T17:08:58.544Z,1.95
2022-10-17T17:11:28.523Z,2.65
2022-10-17T17:13:57.724Z,2.08
2022-10-17T17:16:26.886Z,2.15
2022-10-17T17:19:07.849Z,2.53
2022-10-17T17:21:36.122Z,3.10
2022-10-17T17:24:05.170Z,2.38
2022-10-17T17:26:36.098Z,2.28
2022-10-17T17:29:04.257Z,3.78
2022-10-17T17:31:34.905Z,2.65
2022-10-17T17:34:03.318Z,2.22
2022-10-17T17:36:33.086Z,2.40
2022-10-17T17:39:03.989Z,3.25
2022-10-17T17:41:34.280Z,3.08
2022-10-17T17:44:03.042Z,3.03
2022-10-17T17:46:30.510Z,2.35
2022-10-17T17:48:58.352Z,3.17
2022-10-17T17:51:29.407Z,4.15
2022-10-17T17:53:58.053Z,2.77
2022-10-17T17:56:29.139Z,3.05
2022-10-17T17:58:59.576Z,3.00
2022-10-17T18:01:29.978Z,4.03
2022-10-17T18:04:00.486Z,3.83
2022-10-17T18:06:29.221Z,4.15
2022-10-17T18:09:02.668Z,4.95
2022-10-17T18:11:30.370Z,4.78
2022-10-17T18:14:01.006Z,6.13
2022-10-17T18:16:29.843Z,4.85
2022-10-17T18:19:00.311Z,5.22
2022-10-17T18:21:30.343Z,5.00
2022-10-17T18:23:59.184Z,4.97
2022-10-17T18:26:26.912Z,5.63
2022-10-17T18:28:54.663Z,4.40
2022-10-17T18:31:28.350Z,5.13
2022-10-17T18:33:57.748Z,5.88
2022-10-17T18:36:26.128Z,5.38
2022-10-17T18:38:54.722Z,4.57
2022-10-17T18:41:24.340Z,6.10
2022-10-17T18:43:53.071Z,6.15
2022-10-17T18:46:25.677Z,6.70
2022-10-17T18:48:53.689Z,5.75
2022-10-17T18:51:23.109Z,5.93
2022-10-17T18:53:53.383Z,6.07
2022-10-17T18:56:22.267Z,6.38
2022-10-17T18:58:50.311Z,7.15
2022-10-17T19:01:20.652Z,5.95
2022-10-17T19:03:50.449Z,6.90
2022-10-17T19:06:20.892Z,5.97
2022-10-17T19:08:49.217Z,6.57
2022-10-17T19:11:26.629Z,7.90
2022-10-17T19:13:54.895Z,7.60
2022-10-17T19:16:25.049Z,8.63
2022-10-17T19:19:01.653Z,9.60
2022-10-17T19:21:29.508Z,8.60
2022-10-17T19:24:03.591Z,9.50
2022-10-17T19:26:32.846Z,8.80
2022-10-17T19:29:00.952Z,10.15
2022-10-17T19:31:31.533Z,10.38
2022-10-17T19:33:59.641Z,9.93
2022-10-17T19:36:33.386Z,10.07
2022-10-17T19:39:03.660Z,12.25
2022-10-17T19:41:31.242Z,11.85
2022-10-17T19:43:58.798Z,12.23
2022-10-17T19:46:28.302Z,13.10
2022-10-17T19:48:56.179Z,11.43
2022-10-17T19:51:25.345Z,11.68
2022-10-17T19:53:54.885Z,9.93
2022-10-17T19:56:23.580Z,10.70
2022-10-17T19:58:51.906Z,12.35
2022-10-17T20:01:22.885Z,11.70
2022-10-17T20:03:51.361Z,10.52
2022-10-17T20:06:19.256Z,10.60
2022-10-17T20:08:46.827Z,11.57
2022-10-17T20:11:17.419Z,14.65
2022-10-17T20:13:45.883Z,15.40
2022-10-17T20:16:16.519Z,15.38
2022-10-17T20:18:44.783Z,14.15
2022-10-17T20:21:14.964Z,15.23
2022-10-17T20:23:43.443Z,14.95
2022-10-17T20:26:26.055Z,15.98
2022-10-17T20:29:03.846Z,16.23
2022-10-17T20:31:31.554Z,17.25
2022-10-17T20:34:00.402Z,18.83
2022-10-17T20:36:27.925Z,18.60
2022-10-17T20:38:56.885Z,19.02
2022-10-17T20:41:25.175Z,17.83
2022-10-17T20:43:53.757Z,18.05
2022-10-17T20:46:35.532Z,17.88
2022-10-17T20:49:05.056Z,18.05
2022-10-17T20:51:32.855Z,19.23
2022-10-17T20:54:00.499Z,18.40
2022-10-17T20:56:30.281Z,20.05
2022-10-17T20:59:03.322Z,17.27
2022-10-17T21:01:32.531Z,18.27
2022-10-17T21:04:15.919Z,18.88
2022-10-17T21:06:48.089Z,18.13
2022-10-17T21:09:16.102Z,18.55
2022-10-17T21:11:44.093Z,15.93
2022-10-17T21:14:12.807Z,18.02
2022-10-17T21:16:41.253Z,18.27
2022-10-17T21:19:08.771Z,18.20
2022-10-17T21:21:38.217Z,19.98
2022-10-17T21:24:09.025Z,17.75
2022-10-17T21:26:38.155Z,20.73
2022-10-17T21:29:07.057Z,18.58
2022-10-17T21:31:37.175Z,18.60
2022-10-17T21:34:13.324Z,16.42
2022-10-17T21:36:40.850Z,18.08
2022-10-17T21:41:41.534Z,19.15
2022-10-17T21:44:19.382Z,19.52
2022-10-17T21:46:47.643Z,17.20
2022-10-17T21:49:19.376Z,21.05
2022-10-17T21:51:48.233Z,16.73
2022-10-17T21:54:16.683Z,17.17
2022-10-17T21:56:44.545Z,16.65
2022-10-17T21:59:12.808Z,15.40
2022-10-17T22:01:43.276Z,16.50
2022-10-17T22:04:16.983Z,15.82
2022-10-17T22:06:47.655Z,18.60
2022-10-17T22:09:18.091Z,15.70
2022-10-17T22:11:48.128Z,18.10
2022-10-17T22:14:19.451Z,18.88
2022-10-17T22:16:48.248Z,18.77
2022-10-17T22:19:23.053Z,17.25
2022-10-17T22:21:50.686Z,15.93
2022-10-17T22:26:52.983Z,16.17
2022-10-17T22:29:20.855Z,18.38
2022-10-17T22:31:48.326Z,18.00
2022-10-17T22:34:17.510Z,17.45
2022-10-17T22:36:45.370Z,15.77
2022-10-17T22:39:12.915Z,15.95
2022-10-17T22:41:40.515Z,18.50
2022-10-17T22:44:07.981Z,17.63
2022-10-17T22:46:35.527Z,16.73
2022-10-17T22:49:03.132Z,16.45
2022-10-17T22:51:30.656Z,18.13
2022-10-17T22:53:58.254Z,16.40
2022-10-17T22:56:25.790Z,16.38
2022-10-17T22:58:54.194Z,16.77
2022-10-17T23:01:24.365Z,15.75
2022-10-17T23:03:53.467Z,15.48
2022-10-17T23:06:21.599Z,16.10
2022-10-17T23:08:49.626Z,17.50
2022-10-17T23:11:17.713Z,16.42
2022-10-17T23:13:45.513Z,17.02
2022-10-17T23:16:12.970Z,14.85
2022-10-17T23:18:40.939Z,16.02
2022-10-17T23:21:09.335Z,15.23
2022-10-17T23:23:37.517Z,15.60
2022-10-17T23:26:12.250Z,15.50
2022-10-17T23:28:40.819Z,14.82
2022-10-17T23:31:15.920Z,15.55
2022-10-17T23:33:45.051Z,14.75
2022-10-17T23:36:14.801Z,15.27
2022-10-17T23:38:44.093Z,15.00
2022-10-17T23:41:12.535Z,15.60
2022-10-17T23:43:40.077Z,15.70
2022-10-17T23:46:08.561Z,14.60
2022-10-17T23:48:36.086Z,16.45
2022-10-17T23:51:04.395Z,16.92
2022-10-17T23:53:32.281Z,16.05
2022-10-17T23:55:59.785Z,15.55
2022-10-17T23:58:27.231Z,15.48
